createdAt,value
2017-09-21T00:00:32.121Z,12.30
2017-09-21T00:02:59.677Z,12.30
2017-09-21T00:05:27.651Z,12.30
2017-09-21T00:07:55.224Z,12.30
2017-09-21T00:10:22.784Z,12.40
2017-09-21T00:12:50.370Z,12.30
2017-09-21T00:15:17.940Z,12.30
2017-09-21T00:17:45.966Z,12.30
2017-09-21T00:20:13.526Z,12.30
2017-09-21T00:22:41.086Z,12.30
2017-09-21T00:25:08.683Z,12.30
2017-09-21T00:27:36.383Z,12.30
2017-09-21T00:30:04.276Z,12.30
2017-09-21T00:32:31.859Z,12.30
2017-09-21T00:34:59.424Z,12.30
2017-09-21T00:37:27.954Z,12.20
2017-09-21T00:39:55.531Z,12.20
2017-09-21T00:42:23.939Z,12.20
2017-09-21T00:44:51.536Z,12.20
2017-09-21T00:47:19.100Z,12.20
2017-09-21T00:49:46.703Z,12.20
2017-09-21T00:52:14.291Z,12.20
2017-09-21T00:54:42.935Z,12.20
2017-09-21T00:57:10.517Z,12.20
2017-09-21T00:59:38.067Z,12.20
2017-09-21T01:02:05.667Z,12.20
2017-09-21T01:04:33.223Z,12.20
2017-09-21T01:07:01.077Z,12.20
2017-09-21T01:09:29.399Z,12.30
2017-09-21T01:11:56.961Z,12.30
2017-09-21T01:14:24.570Z,12.30
2017-09-21T01:16:52.140Z,12.30
2017-09-21T01:19:20.942Z,12.30
2017-09-21T01:21:48.699Z,12.30
2017-09-21T01:24:16.250Z,12.30
2017-09-21T01:26:43.852Z,12.30
2017-09-21T01:29:11.415Z,12.40
2017-09-21T01:31:39.282Z,12.40
2017-09-21T01:34:06.840Z,12.40
2017-09-21T01:36:34.405Z,12.40
2017-09-21T01:39:01.995Z,12.40
2017-09-21T01:41:29.551Z,12.40
2017-09-21T01:43:57.608Z,12.30
2017-09-21T01:46:25.305Z,12.40
2017-09-21T01:48:52.871Z,12.30
2017-09-21T01:51:20.489Z,12.30
2017-09-21T01:53:48.050Z,12.30
2017-09-21T01:56:16.123Z,12.30
2017-09-21T01:58:43.687Z,12.30
2017-09-21T02:01:11.248Z,12.30
2017-09-21T02:03:38.841Z,12.30
2017-09-21T02:06:06.402Z,12.30
2017-09-21T02:08:34.419Z,12.30
2017-09-21T02:11:01.958Z,12.30
2017-09-21T02:13:29.517Z,12.30
2017-09-21T02:15:57.099Z,12.40
2017-09-21T02:18:24.650Z,12.40
2017-09-21T02:20:52.543Z,12.40
2017-09-21T02:23:20.116Z,12.40
2017-09-21T02:28:21.525Z,12.40
2017-09-21T02:30:49.132Z,12.40
2017-09-21T02:33:17.209Z,12.40
2017-09-21T02:35:45.578Z,12.50
2017-09-21T02:38:13.173Z,12.40
2017-09-21T02:40:41.027Z,12.50
2017-09-21T02:43:09.367Z,12.50
2017-09-21T02:45:37.335Z,12.50
2017-09-21T02:48:04.886Z,12.50
2017-09-21T02:50:32.590Z,12.50
2017-09-21T02:53:00.176Z,12.50
2017-09-21T02:55:27.740Z,12.50
2017-09-21T02:57:55.651Z,12.60
2017-09-21T03:00:23.212Z,12.60
2017-09-21T03:02:50.774Z,12.60
2017-09-21T03:05:18.520Z,12.60
2017-09-21T03:07:46.126Z,12.60
2017-09-21T03:10:14.775Z,12.60
2017-09-21T03:12:42.350Z,12.60
2017-09-21T03:15:09.924Z,12.60
2017-09-21T03:17:38.276Z,12.60
2017-09-21T03:20:05.835Z,12.60
2017-09-21T03:22:33.907Z,12.60
2017-09-21T03:25:01.460Z,12.60
2017-09-21T03:27:29.022Z,12.60
2017-09-21T03:29:56.619Z,12.60
2017-09-21T03:32:24.179Z,12.60
2017-09-21T03:34:52.828Z,12.60
2017-09-21T03:37:20.411Z,12.60
2017-09-21T03:39:47.977Z,12.60
2017-09-21T03:42:16.529Z,12.60
2017-09-21T03:44:44.094Z,12.50
2017-09-21T03:47:12.151Z,12.60
2017-09-21T03:49:39.709Z,12.60
2017-09-21T03:52:07.266Z,12.60
2017-09-21T03:54:34.862Z,12.60
2017-09-21T03:57:02.445Z,12.60
2017-09-21T03:59:30.344Z,12.60
2017-09-21T04:01:57.911Z,12.60
2017-09-21T04:04:25.548Z,12.60
2017-09-21T04:06:53.165Z,12.60
2017-09-21T04:09:20.741Z,12.60
2017-09-21T04:11:49.407Z,12.60
2017-09-21T04:14:16.999Z,12.60
2017-09-21T04:16:44.559Z,12.60
2017-09-21T04:19:12.976Z,12.60
2017-09-21T04:21:40.572Z,12.60
2017-09-21T04:24:09.239Z,12.60
2017-09-21T04:26:36.815Z,12.60
2017-09-21T04:29:05.163Z,12.50
2017-09-21T04:31:33.596Z,12.50
2017-09-21T04:34:01.192Z,12.50
2017-09-21T04:36:29.294Z,12.50
2017-09-21T04:38:56.862Z,12.40
2017-09-21T04:41:24.419Z,12.40
2017-09-21T04:43:52.010Z,12.40
2017-09-21T04:46:19.626Z,12.30
2017-09-21T04:48:47.502Z,12.30
2017-09-21T04:51:16.570Z,12.20
2017-09-21T04:53:44.147Z,12.20
2017-09-21T04:56:11.751Z,12.30
2017-09-21T04:58:39.302Z,12.30
2017-09-21T05:01:08.027Z,12.30
2017-09-21T05:03:35.577Z,12.30
2017-09-21T05:06:03.152Z,12.30
2017-09-21T05:08:30.752Z,12.30
2017-09-21T05:10:59.090Z,12.40
2017-09-21T05:13:27.086Z,12.40
2017-09-21T05:15:54.650Z,12.40
2017-09-21T05:18:22.228Z,12.40
2017-09-21T05:20:50.594Z,12.50
2017-09-21T05:23:18.150Z,12.40
2017-09-21T05:25:46.211Z,12.50
2017-09-21T05:28:13.810Z,12.50
2017-09-21T05:30:42.006Z,12.50
2017-09-21T05:33:09.623Z,12.60
2017-09-21T05:35:37.947Z,12.60
2017-09-21T05:38:05.943Z,12.60
2017-09-21T05:40:33.508Z,12.70
2017-09-21T05:43:01.067Z,12.70
2017-09-21T05:45:28.787Z,12.70
2017-09-21T05:47:56.322Z,12.80
2017-09-21T05:50:24.249Z,12.80
2017-09-21T05:52:51.804Z,12.80
2017-09-21T05:55:19.359Z,12.90
2017-09-21T05:57:47.051Z,12.90
2017-09-21T06:00:14.615Z,12.90
2017-09-21T06:02:42.590Z,13.00
2017-09-21T06:05:10.925Z,13.00
2017-09-21T06:07:38.495Z,13.00
2017-09-21T06:10:06.113Z,13.00
2017-09-21T06:12:33.671Z,13.10
2017-09-21T06:15:01.564Z,13.10
2017-09-21T06:17:29.135Z,13.20
2017-09-21T06:19:56.700Z,13.20
2017-09-21T06:22:24.296Z,13.20
2017-09-21T06:24:52.623Z,13.30
2017-09-21T06:27:20.621Z,13.30
2017-09-21T06:29:48.182Z,13.30
2017-09-21T06:32:15.741Z,13.40
2017-09-21T06:34:43.346Z,13.40
2017-09-21T06:37:10.910Z,13.40
2017-09-21T06:39:38.884Z,13.50
2017-09-21T06:42:06.440Z,13.50
2017-09-21T06:44:34.084Z,13.50
2017-09-21T06:47:01.703Z,13.60
2017-09-21T06:49:29.275Z,13.70
2017-09-21T06:51:58.665Z,13.80
2017-09-21T06:54:26.242Z,13.80
2017-09-21T06:56:53.835Z,13.80
2017-09-21T06:59:21.646Z,13.90
2017-09-21T07:01:49.207Z,13.90
2017-09-21T07:04:17.182Z,14.00
2017-09-21T07:06:45.540Z,14.10
2017-09-21T07:09:13.118Z,14.10
2017-09-21T07:11:40.719Z,14.10
2017-09-21T07:14:08.278Z,14.10
2017-09-21T07:16:37.163Z,14.20
2017-09-21T07:19:05.508Z,14.20
2017-09-21T07:21:33.059Z,14.20
2017-09-21T07:24:00.646Z,14.30
2017-09-21T07:26:28.223Z,14.30
2017-09-21T07:28:57.007Z,14.40
2017-09-21T07:31:24.566Z,14.40
2017-09-21T07:33:52.897Z,14.50
2017-09-21T07:36:20.495Z,14.40
2017-09-21T07:38:49.076Z,14.60
2017-09-21T07:41:16.954Z,14.50
2017-09-21T07:43:44.555Z,14.60
2017-09-21T07:46:12.114Z,14.70
2017-09-21T07:48:39.708Z,14.80
2017-09-21T07:51:07.272Z,14.80
2017-09-21T07:53:35.336Z,14.90
2017-09-21T07:56:02.894Z,15.00
2017-09-21T07:58:30.456Z,15.00
2017-09-21T08:00:58.058Z,15.10
2017-09-21T08:03:25.617Z,15.20
2017-09-21T08:05:53.657Z,15.20
2017-09-21T08:08:21.207Z,15.30
2017-09-21T08:10:48.766Z,15.30
2017-09-21T08:13:16.362Z,15.40
2017-09-21T08:15:43.947Z,15.50
2017-09-21T08:18:11.955Z,15.50
2017-09-21T08:20:39.531Z,15.60
2017-09-21T08:23:07.115Z,15.60
2017-09-21T08:25:34.803Z,15.60
2017-09-21T08:30:36.602Z,15.70
2017-09-21T08:33:04.316Z,15.80
2017-09-21T08:35:31.906Z,15.80
2017-09-21T08:37:59.503Z,15.90
2017-09-21T08:40:27.839Z,16.00
2017-09-21T08:42:55.707Z,16.00
2017-09-21T08:45:23.277Z,16.00
2017-09-21T08:47:50.842Z,16.00
2017-09-21T08:50:18.464Z,16.00
2017-09-21T08:52:46.051Z,16.00
2017-09-21T08:55:14.067Z,16.10
2017-09-21T08:57:42.489Z,16.10
2017-09-21T09:00:10.069Z,16.10
2017-09-21T09:02:37.667Z,16.00
2017-09-21T09:05:06.007Z,16.00
2017-09-21T09:07:33.990Z,15.90
2017-09-21T09:10:01.547Z,16.00
2017-09-21T09:12:29.113Z,16.10
2017-09-21T09:14:56.705Z,16.20
2017-09-21T09:17:24.291Z,16.20
2017-09-21T09:19:52.299Z,16.30
2017-09-21T09:22:19.892Z,16.40
2017-09-21T09:24:47.477Z,16.50
2017-09-21T09:27:15.070Z,16.60
2017-09-21T09:29:42.627Z,16.60
2017-09-21T09:32:10.606Z,16.70
2017-09-21T09:34:38.154Z,16.80
2017-09-21T09:37:05.716Z,16.80
2017-09-21T09:39:33.338Z,16.90
2017-09-21T09:42:00.889Z,16.90
2017-09-21T09:44:28.942Z,17.00
2017-09-21T09:46:57.291Z,17.10
2017-09-21T09:49:24.857Z,17.10
2017-09-21T09:51:53.216Z,17.10
2017-09-21T09:54:20.787Z,17.10
2017-09-21T09:56:48.658Z,17.10
2017-09-21T09:59:16.203Z,17.20
2017-09-21T10:01:43.785Z,17.20
2017-09-21T10:04:11.404Z,17.30
2017-09-21T10:06:39.076Z,17.30
2017-09-21T10:09:07.005Z,17.30
2017-09-21T10:11:34.656Z,17.40
2017-09-21T10:14:02.998Z,17.50
2017-09-21T10:16:30.747Z,17.50
2017-09-21T10:18:58.351Z,17.60
2017-09-21T10:21:26.296Z,17.60
2017-09-21T10:23:53.855Z,17.60
2017-09-21T10:26:21.436Z,17.80
2017-09-21T10:28:49.041Z,17.80
2017-09-21T10:31:16.779Z,17.80
2017-09-21T10:33:45.430Z,18.00
2017-09-21T10:36:13.008Z,17.90
2017-09-21T10:38:40.799Z,18.00
2017-09-21T10:41:08.454Z,18.10
2017-09-21T10:43:36.133Z,18.20
2017-09-21T10:46:04.000Z,18.30
2017-09-21T10:48:31.783Z,18.30
2017-09-21T10:50:59.522Z,18.30
2017-09-21T10:53:27.181Z,18.40
2017-09-21T10:55:55.625Z,18.30
2017-09-21T10:58:23.689Z,18.30
2017-09-21T11:00:51.470Z,18.30
2017-09-21T11:03:19.022Z,18.30
2017-09-21T11:05:46.678Z,18.40
2017-09-21T11:08:14.259Z,18.40
2017-09-21T11:10:43.014Z,18.40
2017-09-21T11:13:10.598Z,18.40
2017-09-21T11:15:38.170Z,18.30
2017-09-21T11:18:06.694Z,18.30
2017-09-21T11:20:34.358Z,18.30
2017-09-21T11:23:02.361Z,18.30
2017-09-21T11:25:30.055Z,18.30
2017-09-21T11:27:58.408Z,18.30
2017-09-21T11:30:26.011Z,18.30
2017-09-21T11:32:53.563Z,18.30
2017-09-21T11:35:21.484Z,18.40
2017-09-21T11:37:49.035Z,18.40
2017-09-21T11:40:16.604Z,18.40
2017-09-21T11:42:44.195Z,18.40
2017-09-21T11:45:11.762Z,18.40
2017-09-21T11:47:40.440Z,18.40
2017-09-21T11:50:09.032Z,18.30
2017-09-21T11:52:36.635Z,18.30
2017-09-21T11:55:04.286Z,18.20
2017-09-21T11:57:31.975Z,18.20
2017-09-21T11:59:59.877Z,18.20
2017-09-21T12:02:27.446Z,18.30
2017-09-21T12:04:55.781Z,18.30
2017-09-21T12:07:24.137Z,18.20
2017-09-21T12:09:52.527Z,18.10
2017-09-21T12:12:20.510Z,18.10
2017-09-21T12:14:48.067Z,18.10
2017-09-21T12:17:15.627Z,18.10
2017-09-21T12:19:43.588Z,18.10
2017-09-21T12:22:11.159Z,18.30
2017-09-21T12:24:41.831Z,18.40
2017-09-21T12:27:09.388Z,18.50
2017-09-21T12:29:37.753Z,18.50
2017-09-21T12:32:05.369Z,18.50
2017-09-21T12:34:32.942Z,18.60
2017-09-21T12:37:00.934Z,18.60
2017-09-21T12:39:28.545Z,18.60
2017-09-21T12:41:56.115Z,18.70
2017-09-21T12:44:23.886Z,18.70
2017-09-21T12:46:51.600Z,18.80
2017-09-21T12:49:19.640Z,18.90
2017-09-21T12:51:47.212Z,18.90
2017-09-21T12:54:14.895Z,19.00
2017-09-21T12:56:43.322Z,19.20
2017-09-21T12:59:10.877Z,19.20
2017-09-21T13:01:39.693Z,19.20
2017-09-21T13:04:08.045Z,19.20
2017-09-21T13:06:35.610Z,19.20
2017-09-21T13:09:03.296Z,19.20
2017-09-21T13:11:31.718Z,19.00
2017-09-21T13:13:59.723Z,19.00
2017-09-21T13:16:27.300Z,19.00
2017-09-21T13:18:54.920Z,19.00
2017-09-21T13:21:24.234Z,19.10
2017-09-21T13:23:51.865Z,19.20
2017-09-21T13:26:19.485Z,19.20
2017-09-21T13:28:47.966Z,19.40
2017-09-21T13:31:16.640Z,19.50
2017-09-21T13:33:44.207Z,19.40
2017-09-21T13:36:11.807Z,19.60
2017-09-21T13:38:39.422Z,19.60
2017-09-21T13:41:07.090Z,19.60
2017-09-21T13:43:35.017Z,19.60
2017-09-21T13:46:02.587Z,19.60
2017-09-21T13:48:30.272Z,19.60
2017-09-21T13:50:58.396Z,19.50
2017-09-21T13:53:25.966Z,19.60
2017-09-21T13:55:54.085Z,19.60
2017-09-21T13:58:22.449Z,19.50
2017-09-21T14:00:50.047Z,19.50
2017-09-21T14:03:18.480Z,19.50
2017-09-21T14:05:46.075Z,19.50
2017-09-21T14:08:14.055Z,19.60
2017-09-21T14:10:43.208Z,19.60
2017-09-21T14:13:10.775Z,19.50
2017-09-21T14:15:38.378Z,19.50
2017-09-21T14:18:05.988Z,19.50
2017-09-21T14:20:33.966Z,19.50
2017-09-21T14:23:01.543Z,19.40
2017-09-21T14:25:29.162Z,19.30
2017-09-21T14:27:56.812Z,19.20
2017-09-21T14:30:24.352Z,19.10
2017-09-21T14:32:52.327Z,19.00
2017-09-21T14:35:19.883Z,19.00
2017-09-21T14:37:47.711Z,18.90
2017-09-21T14:40:15.370Z,18.80
2017-09-21T14:42:42.944Z,18.70
2017-09-21T14:45:11.619Z,18.60
2017-09-21T14:47:39.243Z,18.50
2017-09-21T14:50:07.053Z,18.50
2017-09-21T14:52:34.659Z,18.40
2017-09-21T14:55:03.017Z,18.30
2017-09-21T14:57:31.157Z,18.30
2017-09-21T14:59:59.490Z,18.30
2017-09-21T15:02:27.171Z,18.30
2017-09-21T15:04:54.814Z,18.30
2017-09-21T15:07:22.457Z,18.30
2017-09-21T15:09:50.505Z,18.30
2017-09-21T15:12:18.881Z,18.20
2017-09-21T15:14:46.469Z,18.20
2017-09-21T15:17:14.850Z,18.20
2017-09-21T15:19:42.439Z,18.10
2017-09-21T15:22:10.440Z,18.20
2017-09-21T15:24:38.095Z,18.10
2017-09-21T15:27:05.679Z,18.10
2017-09-21T15:29:33.295Z,18.00
2017-09-21T15:32:00.857Z,17.90
2017-09-21T15:34:28.951Z,17.80
2017-09-21T15:36:56.521Z,17.70
2017-09-21T15:39:25.736Z,17.70
2017-09-21T15:41:54.121Z,17.60
2017-09-21T15:44:21.672Z,17.60
2017-09-21T15:46:50.335Z,17.50
2017-09-21T15:49:17.964Z,17.50
2017-09-21T15:51:45.561Z,17.50
2017-09-21T15:54:13.813Z,17.40
2017-09-21T15:56:41.386Z,17.40
2017-09-21T15:59:09.256Z,17.30
2017-09-21T16:01:36.951Z,17.20
2017-09-21T16:04:05.362Z,17.10
2017-09-21T16:06:33.002Z,17.10
2017-09-21T16:09:00.563Z,17.10
2017-09-21T16:11:28.500Z,17.00
2017-09-21T16:13:56.101Z,16.90
2017-09-21T16:16:23.917Z,16.80
2017-09-21T16:18:51.834Z,16.80
2017-09-21T16:21:19.510Z,16.70
2017-09-21T16:23:47.524Z,16.60
2017-09-21T16:26:15.118Z,16.60
2017-09-21T16:28:42.721Z,16.50
2017-09-21T16:31:10.331Z,16.50
2017-09-21T16:33:37.885Z,16.40
2017-09-21T16:36:06.030Z,16.40
2017-09-21T16:38:33.633Z,16.30
2017-09-21T16:41:01.215Z,16.30
2017-09-21T16:43:28.844Z,16.30
2017-09-21T16:45:57.221Z,16.30
2017-09-21T16:48:25.146Z,16.30
2017-09-21T16:50:52.718Z,16.30
2017-09-21T16:53:21.879Z,16.20
2017-09-21T16:55:49.504Z,16.20
2017-09-21T16:58:17.079Z,16.20
2017-09-21T17:00:45.325Z,16.20
2017-09-21T17:03:13.707Z,16.20
2017-09-21T17:05:41.284Z,16.20
2017-09-21T17:08:09.650Z,16.10
2017-09-21T17:10:37.223Z,16.10
2017-09-21T17:13:06.086Z,16.10
2017-09-21T17:15:33.643Z,16.10
2017-09-21T17:18:01.229Z,16.10
2017-09-21T17:20:29.584Z,16.10
2017-09-21T17:22:57.170Z,16.00
2017-09-21T17:25:25.206Z,16.00
2017-09-21T17:27:52.806Z,16.00
2017-09-21T17:30:20.529Z,16.00
2017-09-21T17:32:48.219Z,16.00
2017-09-21T17:35:16.562Z,15.90
2017-09-21T17:37:44.696Z,15.90
2017-09-21T17:40:12.294Z,15.80
2017-09-21T17:42:39.849Z,15.80
2017-09-21T17:45:07.481Z,15.70
2017-09-21T17:47:35.935Z,15.70
2017-09-21T17:50:03.861Z,15.60
2017-09-21T17:52:31.437Z,15.60
2017-09-21T17:54:59.025Z,15.50
2017-09-21T17:57:26.643Z,15.50
2017-09-21T17:59:54.209Z,15.40
2017-09-21T18:02:22.166Z,15.40
2017-09-21T18:04:49.756Z,15.40
2017-09-21T18:07:17.387Z,15.40
2017-09-21T18:09:44.986Z,15.40
2017-09-21T18:12:13.351Z,15.30
2017-09-21T18:14:41.310Z,15.30
2017-09-21T18:17:08.882Z,15.30
2017-09-21T18:19:36.441Z,15.30
2017-09-21T18:22:04.082Z,15.20
2017-09-21T18:24:31.668Z,15.20
2017-09-21T18:27:00.700Z,15.20
2017-09-21T18:29:28.270Z,15.20
2017-09-21T18:31:55.875Z,15.20
2017-09-21T18:34:25.110Z,15.20
2017-09-21T18:36:52.916Z,15.20
2017-09-21T18:39:20.943Z,15.20
2017-09-21T18:41:48.559Z,15.20
2017-09-21T18:44:16.139Z,15.20
2017-09-21T18:46:43.886Z,15.20
2017-09-21T18:49:12.141Z,15.10
2017-09-21T18:51:40.235Z,15.10
2017-09-21T18:54:07.829Z,15.10
2017-09-21T18:56:35.412Z,15.10
2017-09-21T18:59:03.081Z,15.10
2017-09-21T19:01:30.668Z,15.10
2017-09-21T19:03:58.768Z,15.10
2017-09-21T19:06:27.150Z,15.10
2017-09-21T19:08:54.736Z,15.10
2017-09-21T19:11:22.379Z,15.20
2017-09-21T19:13:50.717Z,15.10
2017-09-21T19:16:18.711Z,15.10
2017-09-21T19:18:46.320Z,15.10
2017-09-21T19:21:14.531Z,15.10
2017-09-21T19:23:42.199Z,15.10
2017-09-21T19:26:09.783Z,15.10
2017-09-21T19:28:38.440Z,15.00
2017-09-21T19:31:06.036Z,15.00
2017-09-21T19:33:33.631Z,15.00
2017-09-21T19:36:01.460Z,15.00
2017-09-21T19:38:29.051Z,15.00
2017-09-21T19:40:57.430Z,15.00
2017-09-21T19:43:25.079Z,15.00
2017-09-21T19:45:52.703Z,15.00
2017-09-21T19:48:21.198Z,14.90
2017-09-21T19:50:49.090Z,14.90
2017-09-21T19:53:16.715Z,14.90
2017-09-21T19:55:45.032Z,14.90
2017-09-21T19:58:12.660Z,14.80
2017-09-21T20:00:41.038Z,14.80
2017-09-21T20:03:08.749Z,14.80
2017-09-21T20:05:36.334Z,14.90
2017-09-21T20:08:04.240Z,14.90
2017-09-21T20:10:31.835Z,14.90
2017-09-21T20:12:59.445Z,14.80
2017-09-21T20:15:27.872Z,14.80
2017-09-21T20:17:56.134Z,14.80
2017-09-21T20:20:24.122Z,14.80
2017-09-21T20:22:51.687Z,14.80
2017-09-21T20:25:19.266Z,14.80
2017-09-21T20:27:46.894Z,14.80
2017-09-21T20:30:14.474Z,14.70
2017-09-21T20:32:42.379Z,14.70
2017-09-21T20:35:10.704Z,14.70
2017-09-21T20:37:38.293Z,14.70
2017-09-21T20:40:05.939Z,14.70
2017-09-21T20:42:33.524Z,14.60
2017-09-21T20:45:02.659Z,14.70
2017-09-21T20:47:30.251Z,14.60
2017-09-21T20:49:57.872Z,14.70
2017-09-21T20:52:25.472Z,14.70
2017-09-21T20:54:53.059Z,14.70
2017-09-21T20:57:21.015Z,14.70
2017-09-21T20:59:48.590Z,14.60
2017-09-21T21:02:16.175Z,14.70
2017-09-21T21:04:44.535Z,14.70
2017-09-21T21:07:12.132Z,14.70
2017-09-21T21:09:39.749Z,14.70
2017-09-21T21:12:07.356Z,14.70
2017-09-21T21:14:34.974Z,14.60
2017-09-21T21:17:02.746Z,14.70
2017-09-21T21:22:05.704Z,14.60
2017-09-21T21:24:33.325Z,14.60
2017-09-21T21:27:00.917Z,14.60
2017-09-21T21:29:28.520Z,14.60
2017-09-21T21:31:56.125Z,14.60
2017-09-21T21:34:23.765Z,14.60
2017-09-21T21:36:52.160Z,14.50
2017-09-21T21:39:19.775Z,14.50
2017-09-21T21:41:47.331Z,14.50
2017-09-21T21:44:15.270Z,14.50
2017-09-21T21:46:42.900Z,14.40
2017-09-21T21:49:10.681Z,14.30
2017-09-21T21:51:38.581Z,14.30
2017-09-21T21:54:06.166Z,14.30
2017-09-21T21:56:33.736Z,14.30
2017-09-21T21:59:02.132Z,14.20
2017-09-21T22:01:29.739Z,14.20
2017-09-21T22:03:57.918Z,14.30
2017-09-21T22:06:25.459Z,14.30
2017-09-21T22:08:53.019Z,14.30
2017-09-21T22:11:20.610Z,14.30
2017-09-21T22:13:48.166Z,14.30
2017-09-21T22:16:16.224Z,14.30
2017-09-21T22:18:43.788Z,14.30
2017-09-21T22:21:11.563Z,14.30
2017-09-21T22:23:39.569Z,14.30
2017-09-21T22:26:07.127Z,14.30
2017-09-21T22:28:35.763Z,14.30
2017-09-21T22:31:03.324Z,14.20
2017-09-21T22:33:30.913Z,14.30
2017-09-21T22:35:59.301Z,14.30
2017-09-21T22:38:26.854Z,14.30
2017-09-21T22:40:55.475Z,14.30
2017-09-21T22:43:23.030Z,14.20
2017-09-21T22:45:50.590Z,14.20
2017-09-21T22:48:18.202Z,14.20
2017-09-21T22:50:45.780Z,14.20
2017-09-21T22:53:14.437Z,14.20
2017-09-21T22:55:42.008Z,14.20
2017-09-21T22:58:09.554Z,14.30
2017-09-21T23:00:50.615Z,14.20
2017-09-21T23:03:18.923Z,14.20
2017-09-21T23:05:46.906Z,14.20
2017-09-21T23:08:14.523Z,14.20
2017-09-21T23:10:42.075Z,14.20
2017-09-21T23:13:10.488Z,14.20
2017-09-21T23:15:38.058Z,14.20
2017-09-21T23:18:06.004Z,14.20
2017-09-21T23:20:33.560Z,14.20
2017-09-21T23:23:01.128Z,14.20
2017-09-21T23:25:28.724Z,14.20
2017-09-21T23:27:56.267Z,14.20
2017-09-21T23:30:24.144Z,14.20
2017-09-21T23:32:51.703Z,14.20
2017-09-21T23:35:19.251Z,14.20
2017-09-21T23:37:46.846Z,14.20
2017-09-21T23:40:14.409Z,14.10
2017-09-21T23:42:42.254Z,14.10
2017-09-21T23:45:09.816Z,14.20
2017-09-21T23:47:37.387Z,14.20
2017-09-21T23:50:04.983Z,14.20
2017-09-21T23:52:32.535Z,14.10
2017-09-21T23:55:01.180Z,14.20
2017-09-21T23:57:28.740Z,14.20
2017-09-21T23:59:56.290Z,14.20
